Time;durP1;ratioP1;P1;durP2;ratioP2;P2;SDS_P1;SDS_P2;PMS_P1;PMS_P2;Temp;Humidity;BMP_temperature;BMP_pressure;BME280_temperature;BME280_humidity;BME280_pressure;Samples;Min_cycle;Max_cycle;Signal;HPM_P1;HPM_P2
2023/07/30 00:01:44;;;;;;;7.60;7.20;;;17.40;83.40;;;;;;6228107;28;20269;-82
2023/07/30 00:04:48;;;;;;;7.13;6.83;;;17.40;83.30;;;;;;6230026;28;20618;-84
2023/07/30 00:07:51;;;;;;;7.87;7.27;;;17.40;83.30;;;;;;6218787;28;20769;-85
2023/07/30 00:10:58;;;;;;;7.77;7.17;;;17.30;83.20;;;;;;6219835;28;20239;-84
2023/07/30 00:14:09;;;;;;;6.37;6.00;;;17.20;83.20;;;;;;6213102;28;20338;-85
2023/07/30 00:17:12;;;;;;;7.27;6.77;;;17.20;83.20;;;;;;6225630;28;20254;-82
2023/07/30 00:20:17;;;;;;;7.43;7.00;;;17.20;82.90;;;;;;6212421;28;20270;-82
2023/07/30 00:23:20;;;;;;;7.43;6.93;;;17.20;82.80;;;;;;6222811;28;20317;-84
2023/07/30 00:26:26;;;;;;;6.20;5.90;;;17.20;82.70;;;;;;6223546;28;20235;-81
2023/07/30 00:29:29;;;;;;;6.77;6.47;;;17.10;82.80;;;;;;6224506;28;20743;-83
2023/07/30 00:32:32;;;;;;;6.43;6.10;;;17.10;82.60;;;;;;6222149;28;20762;-84
2023/07/30 00:35:35;;;;;;;5.60;5.40;;;17.00;82.60;;;;;;6228133;28;20322;-83
2023/07/30 00:38:40;;;;;;;5.60;5.40;;;17.00;82.60;;;;;;6227608;28;20284;-84
2023/07/30 00:41:45;;;;;;;5.20;5.10;;;17.00;82.50;;;;;;6218374;28;20231;-83
2023/07/30 00:44:48;;;;;;;6.20;5.80;;;17.00;82.50;;;;;;6222143;28;20815;-81
2023/07/30 00:47:52;;;;;;;5.47;5.30;;;17.00;82.00;;;;;;6213651;28;20285;-82
2023/07/30 00:50:56;;;;;;;5.60;5.10;;;17.00;82.00;;;;;;6214393;28;20265;-83
2023/07/30 00:53:59;;;;;;;5.13;5.03;;;17.00;81.70;;;;;;6236142;28;20239;-83
2023/07/30 00:57:04;;;;;;;5.50;5.30;;;17.00;81.40;;;;;;6225081;28;20768;-82
2023/07/30 01:00:09;;;;;;;5.17;4.90;;;17.00;81.40;;;;;;6233451;28;20770;-81
2023/07/30 01:03:12;;;;;;;4.53;4.43;;;17.00;81.40;;;;;;6225356;28;20250;-83
2023/07/30 01:06:15;;;;;;;4.77;4.40;;;17.00;81.30;;;;;;6227415;28;20234;-82
2023/07/30 01:09:19;;;;;;;5.10;5.00;;;16.90;81.30;;;;;;6239897;28;20276;-83
2023/07/30 01:12:24;;;;;;;4.47;4.27;;;16.90;81.20;;;;;;6224790;28;20242;-83
2023/07/30 01:15:30;;;;;;;4.90;4.40;;;16.80;81.20;;;;;;6240330;28;20521;-81
2023/07/30 01:18:33;;;;;;;3.87;3.87;;;16.80;81.30;;;;;;6232841;28;20238;-83
2023/07/30 01:21:38;;;;;;;4.37;4.27;;;16.70;81.20;;;;;;6232025;28;20834;-83
2023/07/30 01:24:42;;;;;;;4.80;4.60;;;16.70;81.30;;;;;;6230009;28;20231;-82
2023/07/30 01:27:51;;;;;;;4.93;4.73;;;16.70;81.30;;;;;;6228236;28;20297;-82
2023/07/30 01:30:57;;;;;;;4.60;4.50;;;16.70;81.20;;;;;;6230698;28;20246;-82
2023/07/30 01:34:03;;;;;;;4.63;4.43;;;16.60;81.20;;;;;;6232712;28;20967;-83
2023/07/30 01:37:11;;;;;;;5.10;4.90;;;16.60;81.20;;;;;;6225319;28;20258;-80
2023/07/30 01:40:14;;;;;;;4.17;4.03;;;16.60;81.20;;;;;;6231943;28;20731;-83
2023/07/30 01:43:17;;;;;;;4.07;3.97;;;16.60;81.20;;;;;;6231247;28;20234;-83
2023/07/30 01:46:21;;;;;;;3.90;3.90;;;16.60;81.10;;;;;;6218396;28;20247;-82
2023/07/30 01:49:24;;;;;;;4.17;4.07;;;16.60;81.00;;;;;;6221230;28;20754;-81
2023/07/30 01:52:29;;;;;;;4.10;4.00;;;16.50;81.00;;;;;;6226720;28;20237;-80
2023/07/30 01:55:32;;;;;;;5.50;5.30;;;16.50;81.00;;;;;;6217010;28;20238;-83
2023/07/30 01:58:35;;;;;;;4.73;4.60;;;16.40;81.50;;;;;;6228074;28;20234;-83
2023/07/30 02:01:39;;;;;;;4.37;4.27;;;16.40;81.40;;;;;;6226213;28;20322;-83
2023/07/30 02:04:42;;;;;;;4.63;4.43;;;16.40;81.40;;;;;;6229675;28;20318;-81
2023/07/30 02:07:47;;;;;;;4.67;4.57;;;16.40;81.50;;;;;;6220584;28;20806;-82
2023/07/30 02:10:57;;;;;;;4.20;4.10;;;16.40;81.40;;;;;;6230157;28;20235;-82
2023/07/30 02:14:00;;;;;;;4.93;4.73;;;16.40;81.40;;;;;;6222842;28;20232;-85
2023/07/30 02:17:03;;;;;;;4.47;4.37;;;16.30;81.50;;;;;;6222203;28;20243;-82
2023/07/30 02:20:08;;;;;;;4.63;4.53;;;16.20;81.50;;;;;;6221762;28;20634;-82
2023/07/30 02:23:15;;;;;;;4.27;4.17;;;16.20;81.50;;;;;;6215398;28;20235;-80
2023/07/30 02:26:24;;;;;;;4.00;3.90;;;16.20;81.50;;;;;;6229125;28;20638;-83
2023/07/30 02:29:29;;;;;;;4.13;4.03;;;16.10;81.60;;;;;;6215732;28;20234;-83
2023/07/30 02:32:32;;;;;;;4.40;4.30;;;16.10;81.60;;;;;;6225791;28;20246;-82
2023/07/30 02:35:35;;;;;;;4.50;4.40;;;16.00;81.70;;;;;;6226440;28;20316;-82
2023/07/30 02:38:40;;;;;;;4.50;4.40;;;16.00;81.80;;;;;;6227023;28;20226;-82
2023/07/30 02:41:43;;;;;;;4.37;4.27;;;16.10;81.90;;;;;;6228846;28;20289;-84
2023/07/30 02:44:46;;;;;;;4.73;4.63;;;16.00;81.90;;;;;;6226565;28;20644;-83
2023/07/30 02:47:49;;;;;;;4.03;4.00;;;16.00;82.00;;;;;;6226850;28;20245;-83
2023/07/30 02:50:52;;;;;;;4.33;4.23;;;16.00;82.00;;;;;;6233545;28;20617;-82
2023/07/30 02:53:59;;;;;;;4.53;4.33;;;16.00;82.00;;;;;;6236398;28;20270;-82
2023/07/30 02:57:02;;;;;;;4.90;4.70;;;16.00;82.10;;;;;;6221455;28;20250;-84
2023/07/30 03:00:08;;;;;;;4.60;4.50;;;16.00;82.20;;;;;;6218718;28;20238;-83
2023/07/30 03:03:11;;;;;;;4.70;4.60;;;16.00;82.30;;;;;;6234989;28;20235;-80
2023/07/30 03:06:16;;;;;;;4.60;4.50;;;16.00;82.40;;;;;;6230746;28;20293;-82
2023/07/30 03:09:21;;;;;;;6.10;5.90;;;16.00;82.40;;;;;;6230434;28;20239;-83
2023/07/30 03:12:24;;;;;;;4.97;4.87;;;16.00;82.50;;;;;;6224380;28;20314;-80
2023/07/30 03:15:28;;;;;;;5.20;5.00;;;16.00;82.60;;;;;;6228884;28;20374;-83
2023/07/30 03:18:31;;;;;;;5.23;5.03;;;16.00;82.60;;;;;;6232006;28;20235;-83
2023/07/30 03:21:35;;;;;;;4.60;4.50;;;16.00;82.60;;;;;;6221818;28;20230;-83
2023/07/30 03:24:40;;;;;;;4.50;4.40;;;16.00;82.60;;;;;;6219126;28;20693;-83
2023/07/30 03:27:43;;;;;;;6.60;6.20;;;16.00;82.60;;;;;;6217779;28;20881;-83
2023/07/30 03:30:46;;;;;;;5.23;5.13;;;16.00;82.70;;;;;;6214007;28;20239;-80
2023/07/30 03:33:50;;;;;;;4.90;4.60;;;16.00;82.80;;;;;;6219020;28;20258;-79
2023/07/30 03:36:53;;;;;;;4.73;4.63;;;15.90;82.80;;;;;;6228992;28;20230;-80
2023/07/30 03:39:57;;;;;;;5.90;5.60;;;15.90;82.90;;;;;;6227279;28;20746;-81
2023/07/30 03:43:01;;;;;;;5.30;5.20;;;15.90;82.90;;;;;;6227814;28;20385;-80
2023/07/30 03:46:04;;;;;;;5.73;5.53;;;15.90;83.00;;;;;;6227992;28;20243;-82
2023/07/30 03:49:10;;;;;;;7.90;7.50;;;15.90;83.00;;;;;;6218833;28;20865;-80
2023/07/30 03:52:13;;;;;;;7.87;7.27;;;16.00;83.30;;;;;;6220561;28;20321;-80
2023/07/30 03:55:18;;;;;;;6.50;6.20;;;15.90;83.60;;;;;;6223913;28;20243;-77
2023/07/30 03:58:21;;;;;;;6.20;5.90;;;15.90;83.50;;;;;;6228631;28;20239;-79
2023/07/30 04:01:24;;;;;;;6.60;6.30;;;16.00;83.40;;;;;;6224247;28;20329;-78
2023/07/30 04:04:27;;;;;;;7.03;6.53;;;16.00;83.50;;;;;;6221083;28;20249;-80
2023/07/30 04:07:30;;;;;;;7.27;6.97;;;16.00;83.40;;;;;;6224715;28;20239;-81
2023/07/30 04:10:35;;;;;;;8.73;8.23;;;16.00;83.40;;;;;;6214503;28;20316;-80
2023/07/30 04:13:39;;;;;;;8.23;7.73;;;16.00;83.40;;;;;;6213169;28;20239;-78
2023/07/30 04:16:43;;;;;;;7.60;7.17;;;16.00;83.50;;;;;;6209447;28;20250;-79
2023/07/30 04:19:47;;;;;;;8.33;7.73;;;16.10;83.50;;;;;;6223014;28;20239;-79
2023/07/30 04:22:50;;;;;;;7.40;7.10;;;16.10;83.20;;;;;;6222277;28;20329;-80
2023/07/30 04:25:54;;;;;;;8.00;7.57;;;16.10;83.20;;;;;;6221501;28;20234;-81
2023/07/30 04:28:58;;;;;;;8.03;7.60;;;16.20;83.00;;;;;;6229798;28;20300;-79
2023/07/30 04:32:01;;;;;;;8.00;7.63;;;16.10;82.60;;;;;;6222235;28;20298;-81
2023/07/30 04:35:04;;;;;;;7.97;7.57;;;16.20;82.60;;;;;;6227179;28;20234;-81
2023/07/30 04:38:08;;;;;;;8.53;7.90;;;16.20;82.30;;;;;;6212513;28;20239;-78
2023/07/30 04:41:12;;;;;;;9.07;8.53;;;16.20;82.10;;;;;;6220414;28;20991;-81
2023/07/30 04:44:15;;;;;;;7.17;6.87;;;16.20;81.90;;;;;;6222954;28;20230;-78
2023/07/30 04:47:18;;;;;;;6.67;6.43;;;16.20;82.10;;;;;;6225122;28;20234;-80
2023/07/30 04:50:21;;;;;;;7.97;7.43;;;16.30;82.00;;;;;;6224255;28;20231;-82
2023/07/30 04:53:25;;;;;;;7.80;7.50;;;16.40;81.80;;;;;;6228107;28;20244;-81
2023/07/30 04:56:29;;;;;;;8.10;7.63;;;16.40;81.50;;;;;;6218090;28;20233;-81
2023/07/30 04:59:33;;;;;;;8.60;8.13;;;16.40;81.10;;;;;;6221214;28;20238;-79
2023/07/30 05:02:37;;;;;;;7.33;7.03;;;16.50;81.20;;;;;;6233321;28;20296;-79
2023/07/30 05:05:40;;;;;;;7.70;7.20;;;16.70;81.10;;;;;;6224913;28;20239;-79
2023/07/30 05:08:43;;;;;;;7.67;7.33;;;16.70;79.90;;;;;;6222310;28;20241;-79
2023/07/30 05:11:48;;;;;;;7.27;6.97;;;16.80;79.70;;;;;;6215801;28;20243;-80
2023/07/30 05:14:51;;;;;;;6.83;6.53;;;17.00;79.70;;;;;;6231291;28;20732;-81
2023/07/30 05:17:54;;;;;;;7.03;6.83;;;17.20;79.60;;;;;;6219338;28;20242;-81
2023/07/30 05:20:57;;;;;;;7.47;7.07;;;17.40;78.20;;;;;;6212370;28;20262;-80
2023/07/30 05:24:00;;;;;;;7.33;7.03;;;17.50;77.70;;;;;;6224428;28;20235;-79
2023/07/30 05:27:05;;;;;;;7.30;6.90;;;17.60;77.10;;;;;;6222051;28;20230;-79
2023/07/30 05:30:10;;;;;;;6.83;6.40;;;17.80;76.90;;;;;;6220452;28;20795;-78
2023/07/30 05:33:15;;;;;;;6.03;5.80;;;18.00;76.00;;;;;;6223262;28;20238;-81
2023/07/30 05:36:18;;;;;;;5.60;5.30;;;18.30;75.70;;;;;;6219379;28;20234;-79
2023/07/30 05:39:21;;;;;;;5.40;5.20;;;18.60;74.40;;;;;;6232868;28;20361;-81
2023/07/30 05:42:26;;;;;;;4.67;4.57;;;18.90;73.60;;;;;;6223667;28;20235;-81
2023/07/30 05:45:29;;;;;;;4.87;4.70;;;19.00;72.50;;;;;;6229410;28;20243;-79
2023/07/30 05:48:32;;;;;;;4.73;4.63;;;19.00;72.40;;;;;;6234278;28;20232;-81
2023/07/30 05:51:35;;;;;;;4.77;4.67;;;19.00;72.50;;;;;;6225642;28;20270;-81
2023/07/30 05:54:39;;;;;;;4.87;4.63;;;19.00;72.50;;;;;;6220473;28;20322;-78
2023/07/30 05:57:43;;;;;;;4.87;4.77;;;19.00;72.80;;;;;;6226625;28;20273;-78
2023/07/30 06:00:47;;;;;;;4.83;4.63;;;19.00;72.40;;;;;;6244765;28;20250;-76
2023/07/30 06:03:50;;;;;;;4.73;4.47;;;19.00;72.00;;;;;;6262448;28;20281;-77
2023/07/30 06:06:53;;;;;;;4.63;4.53;;;18.80;72.70;;;;;;6256971;28;20330;-75
2023/07/30 06:09:56;;;;;;;4.83;4.73;;;18.90;72.20;;;;;;6257580;28;20240;-79
2023/07/30 06:13:01;;;;;;;4.67;4.47;;;19.10;71.90;;;;;;6257268;28;20242;-80
2023/07/30 06:16:04;;;;;;;4.77;4.47;;;19.20;71.70;;;;;;6259621;28;20239;-80
2023/07/30 06:19:07;;;;;;;4.23;4.03;;;19.40;71.00;;;;;;6264837;28;20239;-80
2023/07/30 06:22:11;;;;;;;4.37;4.10;;;19.50;70.50;;;;;;6265543;28;20218;-78
2023/07/30 06:25:14;;;;;;;4.30;4.20;;;19.50;70.40;;;;;;6251500;28;20239;-78
2023/07/30 06:28:18;;;;;;;4.17;4.07;;;19.60;69.70;;;;;;6255680;28;20410;-79
2023/07/30 06:31:21;;;;;;;4.37;4.27;;;19.70;70.40;;;;;;6250871;28;20235;-81
2023/07/30 06:34:24;;;;;;;3.73;3.63;;;19.80;69.60;;;;;;6254306;28;20233;-81
2023/07/30 06:37:28;;;;;;;3.77;3.73;;;19.90;70.20;;;;;;6259546;28;20235;-80
2023/07/30 06:40:31;;;;;;;4.20;4.10;;;19.90;69.70;;;;;;6249167;28;20227;-82
2023/07/30 06:43:35;;;;;;;3.90;3.80;;;20.10;69.60;;;;;;6251553;28;20353;-80
2023/07/30 06:46:39;;;;;;;4.60;4.27;;;20.20;69.50;;;;;;6251532;28;20403;-79
2023/07/30 06:49:42;;;;;;;3.90;3.80;;;20.30;69.10;;;;;;6249885;28;20230;-80
2023/07/30 06:52:45;;;;;;;3.13;3.13;;;20.30;69.00;;;;;;6268442;28;20218;-80
2023/07/30 06:55:48;;;;;;;4.30;4.00;;;20.10;69.40;;;;;;6268537;28;20260;-79
2023/07/30 06:58:53;;;;;;;3.90;3.70;;;20.20;69.20;;;;;;6237570;28;20302;-79
2023/07/30 07:01:56;;;;;;;4.00;3.90;;;20.10;69.00;;;;;;6224037;28;20263;-81
2023/07/30 07:04:59;;;;;;;4.03;3.83;;;19.90;69.60;;;;;;6226939;28;20759;-79
2023/07/30 07:08:02;;;;;;;3.80;3.70;;;19.90;70.60;;;;;;6225565;28;20318;-80
2023/07/30 07:11:08;;;;;;;4.10;4.00;;;20.20;70.50;;;;;;6226406;28;20257;-81
2023/07/30 07:14:12;;;;;;;3.70;3.60;;;20.40;69.20;;;;;;6223216;28;20263;-80
2023/07/30 07:17:15;;;;;;;3.93;3.83;;;20.80;69.50;;;;;;6231679;28;20847;-81
2023/07/30 07:20:19;;;;;;;4.13;3.93;;;21.00;68.30;;;;;;6221911;28;20266;-80
2023/07/30 07:23:22;;;;;;;4.23;4.00;;;21.00;67.50;;;;;;6229199;28;20841;-81
2023/07/30 07:26:25;;;;;;;4.57;4.47;;;20.70;67.90;;;;;;6219406;28;20779;-80
2023/07/30 07:29:30;;;;;;;4.60;4.40;;;20.50;69.30;;;;;;6220727;28;20246;-81
2023/07/30 07:32:37;;;;;;;4.33;4.23;;;20.50;70.10;;;;;;6227196;28;20238;-83
2023/07/30 07:35:41;;;;;;;4.13;4.03;;;20.70;69.40;;;;;;6225480;28;20237;-82
2023/07/30 07:38:44;;;;;;;5.20;4.90;;;20.70;69.30;;;;;;6229737;28;20898;-82
2023/07/30 07:41:47;;;;;;;4.07;3.97;;;20.60;69.20;;;;;;6215554;28;20327;-80
2023/07/30 07:44:52;;;;;;;4.40;4.10;;;20.60;69.90;;;;;;6235449;28;20314;-80
2023/07/30 07:47:55;;;;;;;4.73;4.63;;;20.50;69.90;;;;;;6225539;28;20254;-81
2023/07/30 07:50:58;;;;;;;4.40;4.13;;;20.60;69.80;;;;;;6218579;28;20258;-81
2023/07/30 07:54:01;;;;;;;4.83;4.47;;;21.00;69.50;;;;;;6223379;28;20277;-80
2023/07/30 07:57:05;;;;;;;4.57;4.37;;;21.00;69.60;;;;;;6228199;28;20313;-78
2023/07/30 08:00:10;;;;;;;4.47;4.27;;;21.30;68.90;;;;;;6222747;28;20243;-81
2023/07/30 08:03:14;;;;;;;4.33;4.23;;;21.50;68.60;;;;;;6218057;28;20227;-81
2023/07/30 08:06:17;;;;;;;4.70;4.50;;;21.60;68.00;;;;;;6229404;28;20390;-79
2023/07/30 08:09:20;;;;;;;4.63;4.40;;;21.70;68.00;;;;;;6227735;28;20243;-79
2023/07/30 08:12:23;;;;;;;4.03;3.93;;;21.40;68.20;;;;;;6229229;28;21124;-80
2023/07/30 08:15:27;;;;;;;4.70;4.50;;;21.50;67.70;;;;;;6231825;28;20312;-78
2023/07/30 08:18:31;;;;;;;5.00;4.90;;;21.50;66.90;;;;;;6222053;28;20663;-80
2023/07/30 08:21:34;;;;;;;4.83;4.53;;;21.30;67.30;;;;;;6222655;28;20230;-80
2023/07/30 08:24:38;;;;;;;4.50;4.30;;;21.10;67.70;;;;;;6224113;28;20287;-82
2023/07/30 08:27:41;;;;;;;4.57;4.17;;;21.30;67.80;;;;;;6217512;28;20235;-81
2023/07/30 08:30:46;;;;;;;4.47;4.23;;;21.10;67.10;;;;;;6223863;28;20606;-79
2023/07/30 08:33:49;;;;;;;4.77;4.63;;;21.10;66.80;;;;;;6216756;28;20230;-79
2023/07/30 08:36:52;;;;;;;4.50;4.20;;;21.20;66.90;;;;;;6224068;28;20569;-81
2023/07/30 08:39:55;;;;;;;5.10;4.80;;;21.20;67.00;;;;;;6223577;28;20239;-82
2023/07/30 08:42:59;;;;;;;4.43;4.17;;;21.20;67.00;;;;;;6217075;28;20931;-81
2023/07/30 08:46:04;;;;;;;4.17;3.97;;;21.10;65.80;;;;;;6213293;28;20243;-81
2023/07/30 08:49:07;;;;;;;4.23;4.13;;;21.30;66.10;;;;;;6225575;28;20319;-80
2023/07/30 08:52:11;;;;;;;3.90;3.80;;;21.30;65.70;;;;;;6218724;28;20308;-79
2023/07/30 08:55:14;;;;;;;3.80;3.63;;;21.50;64.70;;;;;;6226897;28;20222;-79
2023/07/30 08:58:19;;;;;;;4.07;3.93;;;21.50;64.60;;;;;;6220035;28;20380;-80
2023/07/30 09:01:25;;;;;;;3.83;3.73;;;21.50;64.10;;;;;;6219197;28;20920;-81
2023/07/30 09:04:31;;;;;;;4.40;4.20;;;21.40;64.80;;;;;;6221354;28;20246;-81
2023/07/30 09:07:34;;;;;;;4.00;3.80;;;21.50;65.30;;;;;;6223238;28;20250;-81
2023/07/30 09:10:37;;;;;;;3.53;3.43;;;21.70;64.00;;;;;;6226845;28;20234;-81
2023/07/30 09:13:41;;;;;;;3.80;3.70;;;21.90;62.90;;;;;;6223729;28;20365;-80
2023/07/30 09:16:45;;;;;;;4.07;3.87;;;21.90;62.30;;;;;;6219666;28;20324;-79
2023/07/30 09:19:50;;;;;;;3.43;3.33;;;21.90;62.30;;;;;;6212653;28;20259;-79
2023/07/30 09:22:53;;;;;;;4.13;3.80;;;21.80;61.00;;;;;;6219963;28;20756;-79
2023/07/30 09:25:59;;;;;;;3.57;3.27;;;21.90;60.80;;;;;;6229286;28;20239;-79
2023/07/30 09:29:02;;;;;;;4.03;3.70;;;22.00;60.90;;;;;;6230489;28;20240;-82
2023/07/30 09:32:09;;;;;;;5.00;3.70;;;22.00;61.30;;;;;;6225591;28;20250;-81
2023/07/30 09:35:12;;;;;;;3.90;3.80;;;22.00;61.30;;;;;;6224971;28;21316;-81
2023/07/30 09:38:15;;;;;;;3.50;3.30;;;22.20;59.30;;;;;;6232497;28;20231;-80
2023/07/30 09:41:19;;;;;;;3.50;3.40;;;22.00;59.40;;;;;;6227791;28;20320;-80
2023/07/30 09:44:22;;;;;;;3.90;3.70;;;21.90;60.10;;;;;;6226577;28;20250;-79
2023/07/30 09:47:31;;;;;;;3.70;3.47;;;22.10;59.40;;;;;;6221106;28;20732;-79
2023/07/30 09:50:34;;;;;;;3.90;3.60;;;22.30;59.80;;;;;;6230122;28;20242;-81
2023/07/30 09:53:38;;;;;;;3.40;3.30;;;22.60;59.70;;;;;;6225767;28;20246;-80
2023/07/30 09:56:42;;;;;;;3.50;3.40;;;23.00;57.30;;;;;;6232553;28;20231;-79
2023/07/30 09:59:45;;;;;;;3.53;3.33;;;23.20;57.50;;;;;;6230698;28;20313;-81
2023/07/30 10:02:51;;;;;;;5.10;3.37;;;23.40;58.40;;;;;;6237429;28;20725;-80
2023/07/30 10:05:56;;;;;;;3.63;3.43;;;23.40;56.10;;;;;;6232012;28;20250;-80
2023/07/30 10:09:02;;;;;;;3.63;3.53;;;23.40;56.50;;;;;;6224183;28;20964;-80
2023/07/30 10:12:07;;;;;;;4.20;3.87;;;23.60;55.90;;;;;;6233177;28;20239;-78
2023/07/30 10:15:11;;;;;;;3.20;3.10;;;23.40;54.90;;;;;;6227052;28;20256;-78
2023/07/30 10:18:15;;;;;;;3.40;3.23;;;23.20;56.70;;;;;;6226001;28;20238;-79
2023/07/30 10:21:24;;;;;;;3.77;3.57;;;23.50;56.50;;;;;;6227540;28;20288;-79
2023/07/30 10:24:32;;;;;;;4.17;3.73;;;23.80;55.90;;;;;;6228028;28;20308;-80
2023/07/30 10:27:38;;;;;;;3.70;3.50;;;23.80;55.00;;;;;;6221578;28;20278;-79
2023/07/30 10:30:42;;;;;;;3.30;3.20;;;23.80;54.00;;;;;;6226065;28;20241;-82
2023/07/30 10:33:48;;;;;;;3.80;3.60;;;23.60;54.50;;;;;;6222598;28;20243;-81
2023/07/30 10:36:53;;;;;;;3.70;3.53;;;23.30;55.30;;;;;;6230896;28;20309;-80
2023/07/30 10:39:56;;;;;;;4.37;3.90;;;23.20;55.50;;;;;;6224894;28;20242;-79
2023/07/30 10:43:02;;;;;;;3.80;3.60;;;23.30;54.80;;;;;;6219838;28;20248;-80
2023/07/30 10:46:06;;;;;;;3.10;3.00;;;23.50;53.80;;;;;;6221963;28;20325;-81
2023/07/30 10:49:12;;;;;;;3.97;3.67;;;23.60;54.00;;;;;;6226338;28;20249;-79
2023/07/30 10:52:16;;;;;;;3.67;3.47;;;23.60;54.80;;;;;;6223470;28;20612;-84
2023/07/30 10:55:20;;;;;;;3.47;3.30;;;23.80;54.20;;;;;;6228484;28;20235;-83
2023/07/30 10:58:26;;;;;;;3.67;3.47;;;23.90;53.70;;;;;;6219273;28;20827;-80
2023/07/30 11:01:29;;;;;;;3.70;3.53;;;23.90;53.90;;;;;;6209726;28;20738;-80
2023/07/30 11:04:36;;;;;;;3.00;2.90;;;23.80;54.20;;;;;;6223991;28;20226;-80
2023/07/30 11:07:39;;;;;;;3.57;3.47;;;23.80;55.50;;;;;;6224367;28;20244;-80
2023/07/30 11:10:44;;;;;;;3.47;3.30;;;23.70;53.60;;;;;;6224911;28;20267;-79
2023/07/30 11:13:48;;;;;;;4.57;3.43;;;23.90;53.70;;;;;;6222829;28;20888;-80
2023/07/30 11:16:53;;;;;;;4.40;4.13;;;24.00;52.30;;;;;;6226419;28;20258;-81
2023/07/30 11:19:57;;;;;;;3.77;3.57;;;23.90;52.90;;;;;;6224441;28;20859;-79
2023/07/30 11:23:00;;;;;;;4.17;3.83;;;23.90;54.20;;;;;;6224813;28;20243;-80
2023/07/30 11:26:05;;;;;;;3.53;3.33;;;23.70;53.70;;;;;;6220878;28;20235;-80
2023/07/30 11:29:16;;;;;;;3.20;3.10;;;23.60;53.00;;;;;;6217733;28;20732;-80
2023/07/30 11:32:19;;;;;;;3.57;3.37;;;23.50;52.40;;;;;;6223459;28;20246;-79
2023/07/30 11:35:24;;;;;;;3.43;3.03;;;23.70;51.30;;;;;;6229330;28;20309;-79
2023/07/30 11:38:29;;;;;;;3.30;3.10;;;24.00;50.50;;;;;;6221467;28;20254;-81
2023/07/30 11:41:32;;;;;;;4.00;3.30;;;24.00;51.60;;;;;;6209978;28;20265;-82
2023/07/30 11:44:37;;;;;;;5.17;4.50;;;23.80;51.70;;;;;;6229886;28;20238;-81
2023/07/30 11:47:41;;;;;;;3.50;3.30;;;23.80;51.20;;;;;;6220792;28;20237;-79
2023/07/30 11:50:50;;;;;;;3.57;3.27;;;24.00;51.60;;;;;;6224081;28;20875;-79
2023/07/30 11:53:56;;;;;;;3.90;3.53;;;24.10;51.70;;;;;;6229108;28;20269;-80
2023/07/30 11:56:59;;;;;;;3.87;3.37;;;24.20;50.20;;;;;;6222765;28;20277;-81
2023/07/30 12:00:02;;;;;;;3.30;3.10;;;24.20;50.40;;;;;;6232777;28;20249;-82
2023/07/30 12:03:08;;;;;;;3.27;3.17;;;24.40;50.70;;;;;;6225441;28;20333;-79
2023/07/30 12:06:15;;;;;;;3.73;3.43;;;24.40;50.70;;;;;;6220306;28;20905;-81
2023/07/30 12:09:22;;;;;;;3.60;3.43;;;24.70;50.90;;;;;;6228423;28;20235;-80
2023/07/30 12:12:27;;;;;;;3.60;3.30;;;24.70;50.70;;;;;;6226777;28;20231;-79
2023/07/30 12:15:31;;;;;;;3.77;3.47;;;25.00;49.60;;;;;;6219390;28;20230;-78
2023/07/30 12:18:35;;;;;;;2.87;2.67;;;24.60;50.20;;;;;;6220800;28;20239;-83
2023/07/30 12:21:42;;;;;;;3.33;3.13;;;24.60;50.50;;;;;;6224302;28;20375;-80
2023/07/30 12:24:46;;;;;;;4.90;3.87;;;24.60;50.50;;;;;;6222730;28;20239;-81
2023/07/30 12:27:49;;;;;;;3.43;3.20;;;24.80;48.70;;;;;;6231950;28;20751;-80
2023/07/30 12:30:52;;;;;;;3.20;3.10;;;24.60;49.20;;;;;;6225147;28;20238;-79
2023/07/30 12:33:56;;;;;;;3.43;3.20;;;24.80;50.10;;;;;;6226123;28;20720;-81
2023/07/30 12:37:01;;;;;;;3.43;3.13;;;24.90;49.60;;;;;;6218139;28;20258;-80
2023/07/30 12:40:05;;;;;;;3.83;3.53;;;24.70;49.10;;;;;;6224969;28;20255;-78
2023/07/30 12:43:09;;;;;;;6.83;3.70;;;24.20;50.00;;;;;;6211535;28;20231;-78
2023/07/30 12:46:12;;;;;;;4.17;3.93;;;24.20;50.60;;;;;;6226856;28;20318;-78
2023/07/30 12:49:15;;;;;;;3.97;3.63;;;24.40;50.90;;;;;;6223665;28;20241;-81
2023/07/30 12:52:20;;;;;;;4.10;3.90;;;24.50;50.50;;;;;;6223205;28;20831;-80
2023/07/30 12:55:23;;;;;;;4.13;3.83;;;24.60;50.30;;;;;;6217588;28;20322;-80
2023/07/30 12:58:28;;;;;;;3.70;3.30;;;24.50;50.10;;;;;;6226858;28;20235;-82
2023/07/30 13:01:31;;;;;;;4.23;3.73;;;24.80;49.50;;;;;;6220139;28;20242;-80
2023/07/30 13:04:34;;;;;;;4.40;4.00;;;24.80;50.00;;;;;;6216675;28;20548;-78
2023/07/30 13:07:39;;;;;;;4.27;3.97;;;24.80;50.90;;;;;;6224328;28;20238;-81
2023/07/30 13:10:42;;;;;;;3.80;3.47;;;24.90;50.00;;;;;;6219902;28;20223;-82
2023/07/30 13:13:46;;;;;;;3.93;3.70;;;25.00;50.20;;;;;;6216704;28;20271;-80
2023/07/30 13:16:49;;;;;;;3.20;3.03;;;24.90;50.90;;;;;;6220800;28;20249;-80
2023/07/30 13:19:52;;;;;;;5.37;3.87;;;25.00;49.60;;;;;;6228898;28;20802;-79
2023/07/30 13:22:57;;;;;;;4.07;3.80;;;25.00;48.70;;;;;;6219995;28;25139;-82
2023/07/30 13:26:01;;;;;;;3.90;3.57;;;24.80;48.70;;;;;;6224769;28;20240;-80
2023/07/30 13:29:04;;;;;;;3.63;3.33;;;24.60;48.90;;;;;;6223010;28;20235;-80
2023/07/30 13:32:08;;;;;;;3.97;3.67;;;24.50;48.50;;;;;;6229799;28;20246;-79
2023/07/30 13:35:11;;;;;;;4.00;3.67;;;24.60;47.80;;;;;;6231368;28;20239;-81
2023/07/30 13:38:17;;;;;;;3.43;3.20;;;24.50;48.30;;;;;;6216867;28;20784;-79
2023/07/30 13:41:21;;;;;;;3.80;3.70;;;24.70;48.30;;;;;;6221813;28;20239;-80
2023/07/30 13:44:25;;;;;;;3.17;2.87;;;24.70;47.70;;;;;;6224491;28;20437;-80
2023/07/30 13:47:28;;;;;;;3.93;3.73;;;24.50;48.40;;;;;;6229582;28;20942;-78
2023/07/30 13:50:31;;;;;;;4.03;3.80;;;24.40;48.40;;;;;;6218059;28;20322;-79
2023/07/30 13:53:40;;;;;;;3.50;3.40;;;24.40;48.00;;;;;;6235970;28;20242;-80
2023/07/30 13:56:44;;;;;;;3.33;3.23;;;24.40;47.10;;;;;;6225905;28;20242;-79
2023/07/30 13:59:47;;;;;;;3.33;3.20;;;24.40;47.30;;;;;;6226779;28;20744;-78
2023/07/30 14:02:50;;;;;;;3.07;2.97;;;24.20;47.60;;;;;;6229338;28;20240;-78
2023/07/30 14:05:54;;;;;;;3.90;3.70;;;24.20;47.80;;;;;;6219880;28;20606;-82
2023/07/30 14:08:59;;;;;;;3.10;3.00;;;24.10;48.10;;;;;;6232935;28;20235;-80
2023/07/30 14:12:02;;;;;;;2.80;2.60;;;23.80;48.20;;;;;;6232574;28;20235;-79
2023/07/30 14:15:07;;;;;;;4.77;3.27;;;23.50;48.00;;;;;;6228703;28;20246;-81
2023/07/30 14:18:10;;;;;;;2.67;2.57;;;23.30;48.70;;;;;;6223159;28;20316;-79
2023/07/30 14:21:13;;;;;;;3.43;3.20;;;23.30;49.00;;;;;;6231022;28;20269;-79
2023/07/30 14:24:18;;;;;;;3.47;3.20;;;23.30;49.10;;;;;;6226406;28;20246;-79
2023/07/30 14:27:22;;;;;;;2.80;2.80;;;23.30;49.40;;;;;;6222892;28;20317;-82
2023/07/30 14:30:25;;;;;;;2.77;2.63;;;23.20;50.30;;;;;;6227059;28;20296;-80
2023/07/30 14:33:28;;;;;;;2.87;2.67;;;23.10;51.60;;;;;;6227983;28;20243;-82
2023/07/30 14:36:31;;;;;;;3.33;2.63;;;22.90;51.90;;;;;;6231224;28;20242;-82
2023/07/30 14:39:36;;;;;;;2.80;2.70;;;22.50;52.30;;;;;;6219160;28;20243;-80
2023/07/30 14:42:39;;;;;;;2.50;2.50;;;22.30;53.30;;;;;;6222309;28;20235;-79
2023/07/30 14:45:42;;;;;;;2.90;2.70;;;21.90;53.50;;;;;;6227526;28;20276;-79
2023/07/30 14:48:46;;;;;;;2.97;2.77;;;21.50;54.80;;;;;;6229555;28;20839;-80
2023/07/30 14:51:51;;;;;;;2.50;2.40;;;21.30;55.60;;;;;;6227164;28;20231;-78
2023/07/30 14:54:57;;;;;;;2.70;2.60;;;21.10;56.70;;;;;;6229769;28;20227;-80
2023/07/30 14:58:01;;;;;;;2.63;2.53;;;21.00;56.50;;;;;;6221959;28;20636;-80
2023/07/30 15:01:06;;;;;;;2.90;2.70;;;20.90;57.80;;;;;;6221182;28;20822;-79
2023/07/30 15:04:11;;;;;;;2.93;2.73;;;20.50;58.00;;;;;;6231808;28;20235;-80
2023/07/30 15:07:14;;;;;;;2.80;2.70;;;20.20;60.50;;;;;;6219021;28;20438;-80
2023/07/30 15:10:19;;;;;;;3.10;2.90;;;19.70;61.90;;;;;;6226353;28;20242;-80
2023/07/30 15:13:25;;;;;;;3.17;3.07;;;19.50;63.10;;;;;;6215328;28;20238;-80
2023/07/30 15:16:28;;;;;;;3.37;3.17;;;19.20;65.00;;;;;;6228769;28;20304;-78
2023/07/30 15:19:33;;;;;;;4.13;3.30;;;18.90;66.70;;;;;;6219686;28;20254;-81
2023/07/30 15:22:36;;;;;;;3.23;3.00;;;18.70;68.00;;;;;;6225195;28;20323;-81
2023/07/30 15:25:41;;;;;;;3.50;3.30;;;18.80;67.90;;;;;;6218536;28;20234;-82
2023/07/30 15:28:44;;;;;;;3.77;3.47;;;18.90;67.80;;;;;;6221347;28;20731;-80
2023/07/30 15:31:50;;;;;;;3.33;3.03;;;19.00;68.10;;;;;;6220842;28;20241;-81
2023/07/30 15:34:53;;;;;;;2.90;2.80;;;19.10;67.90;;;;;;6226740;28;20378;-81
2023/07/30 15:37:56;;;;;;;3.30;3.20;;;19.30;68.10;;;;;;6226302;28;20318;-81
2023/07/30 15:41:01;;;;;;;3.17;3.03;;;19.50;66.50;;;;;;6220010;28;20656;-80
2023/07/30 15:44:05;;;;;;;3.60;3.30;;;19.40;67.10;;;;;;6229485;28;20238;-80
2023/07/30 15:47:10;;;;;;;4.27;3.50;;;19.50;67.60;;;;;;6226446;28;20637;-79
2023/07/30 15:50:13;;;;;;;4.50;3.40;;;19.40;67.60;;;;;;6220898;28;20362;-79
2023/07/30 15:53:16;;;;;;;4.13;3.63;;;19.50;67.40;;;;;;6229289;28;20219;-77
2023/07/30 15:56:21;;;;;;;3.53;3.23;;;19.70;67.10;;;;;;6259443;28;20219;-77
2023/07/30 15:59:25;;;;;;;3.20;3.00;;;19.90;67.10;;;;;;6249231;28;20327;-78